Nevers, Nevers-Fourchambault Airport (LFQG)

NameNevers-Fourchambault Airport
CityNevers
CountryFrance
ICAOLFQG
IATANVS
Altitude183 m
CoordinatesGoogle Map
Live Air TrafficLiveATC.net
METARLFQG 251800Z AUTO 34004KT CAVOK 32/15 Q1018
2019-06-25 18:00:00 Wind: North-Northwest (340°) 2.06 m/s - Visibility: > 10000 m - Weather: CAVOK - Temperature: 32 °C - Dew point: 15 °C - Humidity: 35.7% - Pressure: 1018 hPa

Sorry, no flights used the airport in this database.